createdAt,value
2022-09-05T00:02:24.238Z,25.07
2022-09-05T00:05:01.634Z,25.06
2022-09-05T00:07:58.162Z,25.03
2022-09-05T00:11:18.103Z,25.00
2022-09-05T00:13:41.464Z,25.03
2022-09-05T00:16:44.990Z,25.04
2022-09-05T00:24:14.928Z,25.00
2022-09-05T00:24:37.053Z,24.99
2022-09-05T00:25:46.837Z,24.94
2022-09-05T00:28:26.100Z,24.90
2022-09-05T00:31:54.682Z,24.89
2022-09-05T00:34:19.963Z,24.83
2022-09-05T00:36:54.227Z,24.87
2022-09-05T00:39:28.394Z,24.81
2022-09-05T00:42:01.336Z,24.82
2022-09-05T00:44:36.145Z,24.82
2022-09-05T00:47:13.730Z,24.76
2022-09-05T00:49:49.814Z,24.67
2022-09-05T00:52:28.103Z,24.63
2022-09-05T00:55:21.125Z,24.69
2022-09-05T00:58:11.484Z,24.70
2022-09-05T01:00:54.534Z,24.67
2022-09-05T01:03:38.451Z,24.66
2022-09-05T01:06:28.100Z,24.64
2022-09-05T01:09:22.076Z,24.63
2022-09-05T01:12:02.460Z,24.60
2022-09-05T01:14:48.332Z,24.54
2022-09-05T01:17:39.923Z,24.56
2022-09-05T01:20:57.226Z,24.53
2022-09-05T01:24:07.082Z,24.55
2022-09-05T01:27:21.385Z,24.53
2022-09-05T01:30:00.126Z,24.41
2022-09-05T01:32:39.428Z,24.47
2022-09-05T01:35:38.425Z,24.38
2022-09-05T01:38:15.158Z,24.27
2022-09-05T01:41:18.021Z,24.31
2022-09-05T01:44:23.202Z,24.33
2022-09-05T01:47:09.811Z,24.34
2022-09-05T01:50:00.736Z,24.34
2022-09-05T01:52:58.745Z,24.34
2022-09-05T01:56:04.293Z,24.35
2022-09-05T01:58:54.116Z,24.29
2022-09-05T02:01:33.390Z,24.27
2022-09-05T02:04:38.705Z,24.25
2022-09-05T02:07:30.831Z,24.22
2022-09-05T02:10:31.615Z,24.20
2022-09-05T02:13:14.631Z,24.16
2022-09-05T02:15:59.084Z,24.15
2022-09-05T02:18:44.568Z,24.08
2022-09-05T02:21:23.975Z,24.08
2022-09-05T02:24:04.298Z,24.06
2022-09-05T02:26:38.432Z,24.00
2022-09-05T02:29:28.444Z,24.00
2022-09-05T02:32:05.169Z,23.99
2022-09-05T02:34:43.400Z,24.00
2022-09-05T02:38:13.291Z,23.94
2022-09-05T02:45:10.844Z,23.86
2022-09-05T02:45:18.189Z,23.89
2022-09-05T02:46:14.367Z,23.89
2022-09-05T02:48:58.118Z,23.90
2022-09-05T02:57:27.556Z,23.82
2022-09-05T02:57:40.615Z,23.80
2022-09-05T02:58:06.291Z,23.75
2022-09-05T03:00:32.524Z,23.82
2022-09-05T03:03:24.494Z,23.85
2022-09-05T03:06:08.889Z,23.79
2022-09-05T03:09:17.286Z,23.69
2022-09-05T03:12:28.921Z,23.62
2022-09-05T03:15:50.116Z,23.71
2022-09-05T03:18:50.692Z,23.71
2022-09-05T03:21:49.462Z,23.70
2022-09-05T03:24:54.182Z,23.71
2022-09-05T03:28:10.620Z,23.73
2022-09-05T03:31:07.109Z,23.64
2022-09-05T03:34:28.887Z,23.62
2022-09-05T03:37:41.148Z,23.59
2022-09-05T03:40:43.776Z,23.61
2022-09-05T03:43:37.682Z,23.59
2022-09-05T03:46:22.982Z,23.59
2022-09-05T03:50:31.181Z,23.56
2022-09-05T03:57:10.353Z,23.63
2022-09-05T03:57:15.841Z,23.56
2022-09-05T03:58:55.977Z,23.51
2022-09-05T04:04:58.992Z,23.50
2022-09-05T04:08:24.412Z,23.48
2022-09-05T04:08:29.746Z,23.51
2022-09-05T04:10:33.592Z,23.51
2022-09-05T04:13:10.203Z,23.50
2022-09-05T04:15:47.838Z,23.50
2022-09-05T04:18:33.750Z,23.49
2022-09-05T04:21:14.576Z,23.42
2022-09-05T04:24:01.524Z,23.40
2022-09-05T04:27:01.932Z,23.39
2022-09-05T04:29:44.700Z,23.35
2022-09-05T04:32:32.291Z,23.34
2022-09-05T04:35:20.949Z,23.33
2022-09-05T04:37:55.766Z,23.34
2022-09-05T04:40:47.841Z,23.25
2022-09-05T04:43:26.967Z,23.24
2022-09-05T04:46:03.225Z,23.22
2022-09-05T04:48:39.716Z,23.19
2022-09-05T04:51:30.169Z,23.16
2022-09-05T04:54:21.924Z,23.15
2022-09-05T04:56:56.164Z,23.18
2022-09-05T05:01:48.791Z,23.19
2022-09-05T05:06:14.889Z,23.20
2022-09-05T05:06:18.350Z,23.20
2022-09-05T05:08:30.359Z,23.18
2022-09-05T05:17:29.830Z,23.14
2022-09-05T05:18:10.380Z,23.19
2022-09-05T05:18:11.317Z,23.23
2022-09-05T05:20:40.626Z,23.16
2022-09-05T05:22:58.141Z,23.17
2022-09-05T05:25:48.179Z,23.15
2022-09-05T05:28:25.590Z,23.18
2022-09-05T05:31:01.784Z,23.41
2022-09-05T05:33:35.474Z,23.97
2022-09-05T05:36:08.861Z,24.61
2022-09-05T05:38:45.100Z,25.07
2022-09-05T05:41:22.787Z,25.47
2022-09-05T05:43:52.510Z,25.82
2022-09-05T05:46:36.894Z,26.20
2022-09-05T05:49:18.993Z,26.47
2022-09-05T05:52:03.086Z,26.74
2022-09-05T05:54:43.386Z,26.27
2022-09-05T05:57:57.194Z,26.71
2022-09-05T06:00:38.676Z,27.10
2022-09-05T06:03:43.998Z,27.44
2022-09-05T06:06:38.183Z,27.68
2022-09-05T06:14:54.960Z,27.26
2022-09-05T06:15:04.230Z,27.23
2022-09-05T06:16:21.758Z,26.42
2022-09-05T06:19:28.887Z,26.26
2022-09-05T06:22:45.606Z,26.64
2022-09-05T06:25:46.801Z,24.19
2022-09-05T06:28:26.636Z,25.44
2022-09-05T06:31:29.090Z,26.52
2022-09-05T06:34:33.556Z,26.08
2022-09-05T06:37:16.635Z,25.21
2022-09-05T06:40:03.997Z,25.82
2022-09-05T06:42:44.246Z,24.77
2022-09-05T06:45:38.108Z,25.48
2022-09-05T06:48:32.109Z,25.35
2022-09-05T06:51:48.634Z,25.51
2022-09-05T06:55:13.579Z,25.83
2022-09-05T06:58:30.149Z,25.60
2022-09-05T07:01:02.405Z,24.99
2022-09-05T07:03:59.604Z,24.42
2022-09-05T07:07:06.798Z,25.38
2022-09-05T07:09:52.303Z,25.31
2022-09-05T07:12:30.229Z,25.16
2022-09-05T07:15:10.600Z,25.47
2022-09-05T07:18:09.588Z,25.96
2022-09-05T07:21:15.823Z,26.33
2022-09-05T07:24:09.084Z,26.41
2022-09-05T07:26:51.820Z,25.68
2022-09-05T07:29:27.708Z,26.50
2022-09-05T07:31:59.578Z,26.21
2022-09-05T07:34:31.738Z,26.61
2022-09-05T07:37:15.097Z,25.77
2022-09-05T07:39:49.398Z,26.12
2022-09-05T07:42:24.703Z,26.98
2022-09-05T07:44:57.899Z,27.70
2022-09-05T07:47:31.397Z,27.73
2022-09-05T07:51:59.227Z,27.80
2022-09-05T07:56:59.937Z,27.40
2022-09-05T07:57:10.878Z,27.76
2022-09-05T07:58:45.980Z,27.08
2022-09-05T08:01:17.942Z,27.32
2022-09-05T08:03:46.834Z,28.03
2022-09-05T08:07:46.511Z,28.07
2022-09-05T08:10:06.795Z,27.89
2022-09-05T08:12:11.445Z,28.55
2022-09-05T08:14:52.855Z,27.07
2022-09-05T08:17:26.278Z,27.49
2022-09-05T08:20:17.619Z,28.00
2022-09-05T08:22:56.188Z,28.32
2022-09-05T08:25:37.560Z,28.18
2022-09-05T08:28:26.249Z,28.16
2022-09-05T08:31:14.406Z,27.64
2022-09-05T08:33:44.492Z,28.53
2022-09-05T08:36:22.834Z,28.30
2022-09-05T08:38:52.031Z,28.78
2022-09-05T08:41:43.062Z,28.90
2022-09-05T08:46:36.406Z,29.27
2022-09-05T08:47:24.223Z,29.20
2022-09-05T08:50:26.882Z,28.81
2022-09-05T08:53:28.133Z,29.21
2022-09-05T08:56:06.555Z,28.94
2022-09-05T08:59:27.506Z,29.34
2022-09-05T09:02:44.823Z,28.30
2022-09-05T09:05:14.189Z,29.56
2022-09-05T09:07:52.053Z,29.55
2022-09-05T09:10:34.933Z,30.18
2022-09-05T09:13:29.212Z,30.35
2022-09-05T09:16:06.598Z,29.49
2022-09-05T09:19:02.259Z,29.27
2022-09-05T09:21:36.664Z,29.13
2022-09-05T09:24:18.861Z,29.29
2022-09-05T09:26:56.657Z,29.76
2022-09-05T09:29:27.832Z,30.63
2022-09-05T09:32:07.000Z,29.23
2022-09-05T09:34:47.269Z,29.09
2022-09-05T09:37:51.746Z,29.57
2022-09-05T09:40:36.836Z,29.61
2022-09-05T09:43:17.667Z,29.83
2022-09-05T09:46:09.871Z,29.70
2022-09-05T09:49:21.661Z,30.70
2022-09-05T09:52:31.872Z,29.17
2022-09-05T09:55:47.188Z,30.03
2022-09-05T09:58:36.805Z,30.71
2022-09-05T10:01:36.097Z,30.68
2022-09-05T10:10:34.567Z,31.13
2022-09-05T10:10:46.314Z,30.96
2022-09-05T10:14:26.252Z,30.70
2022-09-05T10:17:23.347Z,30.46
2022-09-05T10:20:10.527Z,30.21
2022-09-05T10:23:10.660Z,29.88
2022-09-05T10:26:12.357Z,29.74
2022-09-05T10:28:53.320Z,30.69
2022-09-05T10:33:21.284Z,30.68
2022-09-05T10:35:14.642Z,30.41
2022-09-05T10:37:16.022Z,29.51
2022-09-05T10:39:47.940Z,29.14
2022-09-05T10:42:25.332Z,29.37
2022-09-05T10:44:55.790Z,29.44
2022-09-05T10:47:36.078Z,30.54
2022-09-05T10:50:14.216Z,30.93
2022-09-05T10:53:04.912Z,30.85
2022-09-05T10:55:43.284Z,30.52
2022-09-05T10:59:28.983Z,30.83
2022-09-05T11:02:28.150Z,30.71
2022-09-05T11:04:37.203Z,30.97
2022-09-05T11:07:26.663Z,30.49
2022-09-05T11:10:08.126Z,30.61
2022-09-05T11:12:57.643Z,31.14
2022-09-05T11:15:33.812Z,31.12
2022-09-05T11:18:06.396Z,30.53
2022-09-05T11:20:58.218Z,30.63
2022-09-05T11:23:35.042Z,30.54
2022-09-05T11:26:25.973Z,29.76
2022-09-05T11:29:00.482Z,29.99
2022-09-05T11:32:44.844Z,30.13
2022-09-05T11:39:54.426Z,30.33
2022-09-05T11:40:10.269Z,30.67
2022-09-05T11:41:50.974Z,31.17
2022-09-05T11:44:36.447Z,31.20
2022-09-05T11:47:46.396Z,30.74
2022-09-05T11:50:56.491Z,30.73
2022-09-05T11:53:57.285Z,30.30
2022-09-05T11:56:49.016Z,30.46
2022-09-05T11:59:47.401Z,30.36
2022-09-05T12:02:39.367Z,30.74
2022-09-05T12:05:48.891Z,30.78
2022-09-05T12:08:32.360Z,30.29
2022-09-05T12:11:14.008Z,30.35
2022-09-05T12:13:48.574Z,30.06
2022-09-05T12:16:47.461Z,30.01
2022-09-05T12:19:26.899Z,30.08
2022-09-05T12:22:29.032Z,30.20
2022-09-05T12:27:35.454Z,30.16
2022-09-05T12:29:28.087Z,30.77
2022-09-05T12:32:31.020Z,30.24
2022-09-05T12:40:58.061Z,30.75
2022-09-05T12:41:35.259Z,30.91
2022-09-05T12:42:09.561Z,30.39
2022-09-05T12:44:36.696Z,29.85
2022-09-05T12:45:59.249Z,30.73
2022-09-05T12:48:38.676Z,30.01
2022-09-05T12:51:45.267Z,30.72
2022-09-05T12:54:10.379Z,30.90
2022-09-05T13:00:48.177Z,30.81
2022-09-05T13:03:02.254Z,30.54
2022-09-05T13:03:08.338Z,30.61
2022-09-05T13:05:52.252Z,30.16
2022-09-05T13:08:23.233Z,30.13
2022-09-05T13:14:49.601Z,30.07
2022-09-05T13:14:57.460Z,29.93
2022-09-05T13:16:41.406Z,29.68
2022-09-05T13:19:29.353Z,30.24
2022-09-05T13:22:01.039Z,29.93
2022-09-05T13:24:35.826Z,30.41
2022-09-05T13:27:13.841Z,29.84
2022-09-05T13:34:29.442Z,30.28
2022-09-05T13:38:00.572Z,29.83
2022-09-05T13:38:14.441Z,29.48
2022-09-05T13:38:48.429Z,29.54
2022-09-05T13:41:28.568Z,29.92
2022-09-05T13:44:24.895Z,29.97
2022-09-05T13:46:58.562Z,30.44
2022-09-05T13:49:37.167Z,30.84
2022-09-05T13:52:26.314Z,30.44
2022-09-05T13:55:04.636Z,31.08
2022-09-05T13:57:40.177Z,31.30
2022-09-05T14:00:53.816Z,31.36
2022-09-05T14:04:06.053Z,31.22
2022-09-05T14:10:11.822Z,31.18
2022-09-05T14:12:48.683Z,31.19
2022-09-05T14:15:37.493Z,30.68
2022-09-05T14:18:21.659Z,29.69
2022-09-05T14:21:14.212Z,29.63
2022-09-05T14:23:53.805Z,29.98
2022-09-05T14:26:31.626Z,30.25
2022-09-05T14:29:15.114Z,30.20
2022-09-05T14:37:34.411Z,30.42
2022-09-05T14:37:43.463Z,29.92
2022-09-05T14:38:09.589Z,29.74
2022-09-05T14:41:26.473Z,30.20
2022-09-05T14:44:23.779Z,30.44
2022-09-05T14:47:32.490Z,29.88
2022-09-05T14:50:27.701Z,29.40
2022-09-05T14:56:51.562Z,29.80
2022-09-05T15:02:51.310Z,30.02
2022-09-05T15:02:52.077Z,29.60
2022-09-05T15:04:46.572Z,29.70
2022-09-05T15:07:23.917Z,29.42
2022-09-05T15:11:47.296Z,29.33
2022-09-05T15:13:02.259Z,29.55
2022-09-05T15:15:35.824Z,29.82
2022-09-05T15:18:07.478Z,29.87
2022-09-05T15:20:40.164Z,29.39
2022-09-05T15:23:16.734Z,29.42
2022-09-05T15:25:48.271Z,29.27
2022-09-05T15:28:22.448Z,29.44
2022-09-05T15:30:58.966Z,29.98
2022-09-05T15:33:29.910Z,30.30
2022-09-05T15:36:01.413Z,29.48
2022-09-05T15:38:54.283Z,30.04
2022-09-05T15:41:26.423Z,29.63
2022-09-05T15:43:59.737Z,29.63
2022-09-05T15:46:46.316Z,29.36
2022-09-05T15:49:28.255Z,29.23
2022-09-05T15:52:01.315Z,29.10
2022-09-05T15:54:37.331Z,29.24
2022-09-05T15:57:17.497Z,29.50
2022-09-05T15:59:49.656Z,29.70
2022-09-05T16:02:23.285Z,29.81
2022-09-05T16:10:33.693Z,30.24
2022-09-05T16:10:37.464Z,30.09
2022-09-05T16:11:39.374Z,30.40
2022-09-05T16:13:53.058Z,30.28
2022-09-05T16:21:34.313Z,30.39
2022-09-05T16:23:26.207Z,30.24
2022-09-05T16:23:32.024Z,30.45
2022-09-05T16:25:11.810Z,30.65
2022-09-05T16:27:54.338Z,30.68
2022-09-05T16:30:25.451Z,30.63
2022-09-05T16:33:01.154Z,30.63
2022-09-05T16:35:33.845Z,30.66
2022-09-05T16:38:13.025Z,30.37
2022-09-05T16:40:48.562Z,30.43
2022-09-05T16:43:21.477Z,30.45
2022-09-05T16:45:57.571Z,30.32
2022-09-05T16:48:38.196Z,30.22
2022-09-05T16:51:18.280Z,30.17
2022-09-05T16:54:11.062Z,30.08
2022-09-05T16:56:44.722Z,30.06
2022-09-05T16:59:17.638Z,30.04
2022-09-05T17:02:07.231Z,30.01
2022-09-05T17:05:04.382Z,29.96
2022-09-05T17:07:50.067Z,29.92
2022-09-05T17:10:21.008Z,29.94
2022-09-05T17:12:55.078Z,29.86
2022-09-05T17:15:29.357Z,29.80
2022-09-05T17:18:20.389Z,29.76
2022-09-05T17:20:56.016Z,29.72
2022-09-05T17:28:34.665Z,29.71
2022-09-05T17:29:31.265Z,29.67
2022-09-05T17:32:48.193Z,29.54
2022-09-05T17:35:42.471Z,29.46
2022-09-05T17:38:38.363Z,29.37
2022-09-05T17:41:55.430Z,29.33
2022-09-05T17:44:30.071Z,29.29
2022-09-05T17:47:15.293Z,29.26
2022-09-05T17:49:45.989Z,29.22
2022-09-05T17:52:21.071Z,29.19
2022-09-05T17:54:52.550Z,29.14
2022-09-05T17:57:41.382Z,29.11
2022-09-05T18:00:44.170Z,29.07
2022-09-05T18:04:16.268Z,28.99
2022-09-05T18:07:00.656Z,28.97
2022-09-05T18:10:12.632Z,28.93
2022-09-05T18:13:13.348Z,28.84
2022-09-05T18:16:11.770Z,28.72
2022-09-05T18:19:32.681Z,28.74
2022-09-05T18:21:49.558Z,28.76
2022-09-05T18:24:33.481Z,28.62
2022-09-05T18:27:43.905Z,28.71
2022-09-05T18:30:08.201Z,28.71
2022-09-05T18:32:42.403Z,28.74
2022-09-05T18:35:37.145Z,28.72
2022-09-05T18:38:17.778Z,28.73
2022-09-05T18:41:18.289Z,28.72
2022-09-05T18:44:12.279Z,28.65
2022-09-05T18:46:47.057Z,28.60
2022-09-05T18:50:25.140Z,28.56
2022-09-05T18:52:17.078Z,28.50
2022-09-05T18:55:46.349Z,28.43
2022-09-05T18:57:52.311Z,28.35
2022-09-05T19:00:44.661Z,28.29
2022-09-05T19:03:19.434Z,28.18
2022-09-05T19:05:54.751Z,28.13
2022-09-05T19:08:31.879Z,28.08
2022-09-05T19:11:27.549Z,28.04
2022-09-05T19:14:14.217Z,28.03
2022-09-05T19:16:48.390Z,27.92
2022-09-05T19:19:24.879Z,27.86
2022-09-05T19:22:52.608Z,27.46
2022-09-05T19:24:47.077Z,27.37
2022-09-05T19:29:01.344Z,27.01
2022-09-05T19:36:54.024Z,27.48
2022-09-05T19:36:56.709Z,27.30
2022-09-05T19:37:03.121Z,27.41
2022-09-05T19:41:31.789Z,27.42
2022-09-05T19:47:40.430Z,27.35
2022-09-05T19:47:41.669Z,27.46
2022-09-05T19:47:56.107Z,27.47
2022-09-05T19:50:11.531Z,27.33
2022-09-05T19:52:41.086Z,27.29
2022-09-05T19:55:21.885Z,27.28
2022-09-05T19:57:54.210Z,27.18
2022-09-05T20:00:45.910Z,27.16
2022-09-05T20:03:38.586Z,27.11
2022-09-05T20:06:29.232Z,27.07
2022-09-05T20:09:10.812Z,27.06
2022-09-05T20:11:45.681Z,27.04
2022-09-05T20:14:20.518Z,26.98
2022-09-05T20:16:50.437Z,26.90
2022-09-05T20:19:28.465Z,26.92
2022-09-05T20:21:59.770Z,26.86
2022-09-05T20:24:49.258Z,26.84
2022-09-05T20:27:17.957Z,26.85
2022-09-05T20:29:56.955Z,26.83
2022-09-05T20:32:39.493Z,26.75
2022-09-05T20:36:31.375Z,26.76
2022-09-05T20:43:16.978Z,26.74
2022-09-05T20:43:26.808Z,26.69
2022-09-05T20:44:01.517Z,26.63
2022-09-05T20:48:31.814Z,26.60
2022-09-05T20:54:14.518Z,26.57
2022-09-05T20:54:22.172Z,26.55
2022-09-05T20:55:38.898Z,26.54
2022-09-05T20:58:12.170Z,26.52
2022-09-05T21:00:46.366Z,26.53
2022-09-05T21:03:36.754Z,26.43
2022-09-05T21:06:22.715Z,26.42
2022-09-05T21:08:55.380Z,26.37
2022-09-05T21:11:32.808Z,26.33
2022-09-05T21:14:04.750Z,26.27
2022-09-05T21:16:36.733Z,26.29
2022-09-05T21:19:05.607Z,26.29
2022-09-05T21:21:35.782Z,26.28
2022-09-05T21:24:17.657Z,26.25
2022-09-05T21:26:49.377Z,26.23
2022-09-05T21:29:27.465Z,26.20
2022-09-05T21:32:10.275Z,26.16
2022-09-05T21:34:45.300Z,26.14
2022-09-05T21:37:16.247Z,26.09
2022-09-05T21:39:59.499Z,26.03
2022-09-05T21:46:02.581Z,26.00
2022-09-05T21:47:44.485Z,25.98
2022-09-05T21:48:10.552Z,25.92
2022-09-05T21:50:43.065Z,25.87
2022-09-05T21:55:19.540Z,25.82
2022-09-05T21:59:16.566Z,25.74
2022-09-05T21:59:32.589Z,25.72
2022-09-05T22:01:58.078Z,25.66
2022-09-05T22:04:27.171Z,25.68
2022-09-05T22:06:58.647Z,25.67
2022-09-05T22:09:27.335Z,25.62
2022-09-05T22:11:57.761Z,25.60
2022-09-05T22:14:26.875Z,25.61
2022-09-05T22:16:58.951Z,25.60
2022-09-05T22:19:37.597Z,25.57
2022-09-05T22:22:16.477Z,25.55
2022-09-05T22:24:50.960Z,25.44
2022-09-05T22:27:22.594Z,25.22
2022-09-05T22:29:51.818Z,25.03
2022-09-05T22:32:33.806Z,24.69
2022-09-05T22:35:27.421Z,23.44
2022-09-05T22:38:00.347Z,24.10
2022-09-05T22:40:30.492Z,24.81
2022-09-05T22:43:02.278Z,24.75
2022-09-05T22:45:32.740Z,24.99
2022-09-05T22:48:06.712Z,24.40
2022-09-05T22:50:35.293Z,24.81
2022-09-05T22:53:06.894Z,25.09
2022-09-05T22:55:35.995Z,25.21
2022-09-05T22:58:07.062Z,25.22
2022-09-05T23:00:36.283Z,25.10
2022-09-05T23:03:07.126Z,25.15
2022-09-05T23:05:36.460Z,25.18
2022-09-05T23:08:06.627Z,25.25
2022-09-05T23:10:36.536Z,25.20
2022-09-05T23:13:08.429Z,25.19
2022-09-05T23:15:37.991Z,25.18
2022-09-05T23:18:07.248Z,25.14
2022-09-05T23:20:36.231Z,25.10
2022-09-05T23:23:06.468Z,25.09
2022-09-05T23:25:36.239Z,25.09
2022-09-05T23:28:08.874Z,25.08
2022-09-05T23:30:38.083Z,25.05
2022-09-05T23:33:08.292Z,25.02
2022-09-05T23:35:37.772Z,25.00
2022-09-05T23:38:11.176Z,24.97
2022-09-05T23:40:40.204Z,24.90
2022-09-05T23:43:10.178Z,24.90
2022-09-05T23:45:38.623Z,24.88
2022-09-05T23:48:07.087Z,24.91
2022-09-05T23:50:35.530Z,24.87
2022-09-05T23:53:04.626Z,24.80
2022-09-05T23:55:33.582Z,24.78
2022-09-05T23:58:02.065Z,24.80
